Time;durP1;ratioP1;P1;durP2;ratioP2;P2;SDS_P1;SDS_P2;PMS_P1;PMS_P2;Temp;Humidity;BMP_temperature;BMP_pressure;BME280_temperature;BME280_humidity;BME280_pressure;Samples;Min_cycle;Max_cycle;Signal;HPM_P1;HPM_P2
2024/01/09 00:01:25;;;;;;;23.38;22.08;;;;;;;;;;5028239;28;20045;-66
2024/01/09 00:03:51;;;;;;;23.40;22.10;;;;;;;;;;5030679;28;20026;-67
2024/01/09 00:06:16;;;;;;;21.42;20.23;;;;;;;;;;5031893;28;20440;-66
2024/01/09 00:08:42;;;;;;;25.58;24.17;;;;;;;;;;5035462;28;20029;-66
2024/01/09 00:11:11;;;;;;;25.20;23.70;;;;;;;;;;5027834;28;20402;-66
2024/01/09 00:13:37;;;;;;;24.25;22.85;;;;;;;;;;5031277;28;20108;-66
2024/01/09 00:16:02;;;;;;;26.50;24.90;;;;;;;;;;5033996;28;20120;-66
2024/01/09 00:18:27;;;;;;;24.25;22.90;;;;;;;;;;5034314;28;20055;-65
2024/01/09 00:20:54;;;;;;;24.48;23.17;;;;;;;;;;5031186;28;20559;-65
2024/01/09 00:23:19;;;;;;;25.92;24.50;;;;;;;;;;5032852;28;20029;-65
2024/01/09 00:25:44;;;;;;;24.02;22.60;;;;;;;;;;5029652;28;20035;-66
2024/01/09 00:28:10;;;;;;;25.27;23.88;;;;;;;;;;5031239;28;20525;-65
2024/01/09 00:30:35;;;;;;;27.27;25.65;;;;;;;;;;5029825;28;20033;-66
2024/01/09 00:33:00;;;;;;;23.20;21.90;;;;;;;;;;5032372;28;21435;-65
2024/01/09 00:35:26;;;;;;;26.58;25.13;;;;;;;;;;5032541;28;20056;-65
2024/01/09 00:37:51;;;;;;;24.08;22.17;;;;;;;;;;5028859;28;20029;-66
2024/01/09 00:40:17;;;;;;;25.13;23.73;;;;;;;;;;5034126;28;20042;-65
2024/01/09 00:42:42;;;;;;;25.25;23.80;;;;;;;;;;5029420;28;20106;-65
2024/01/09 00:45:08;;;;;;;25.33;23.70;;;;;;;;;;5032341;28;20091;-65
2024/01/09 00:47:33;;;;;;;25.75;24.27;;;;;;;;;;5031783;28;20049;-66
2024/01/09 00:49:59;;;;;;;25.85;24.45;;;;;;;;;;5031457;28;20542;-65
2024/01/09 00:52:24;;;;;;;25.65;24.05;;;;;;;;;;5034350;28;20037;-65
2024/01/09 00:54:49;;;;;;;25.15;23.75;;;;;;;;;;5030341;28;20630;-65
2024/01/09 00:57:15;;;;;;;24.45;23.10;;;;;;;;;;5015581;28;20029;-66
2024/01/09 00:59:40;;;;;;;26.45;24.65;;;;;;;;;;5032749;28;20025;-65
2024/01/09 01:02:06;;;;;;;25.15;23.75;;;;;;;;;;5031723;28;20129;-66
2024/01/09 01:04:31;;;;;;;25.58;24.15;;;;;;;;;;5029292;28;20132;-65
2024/01/09 01:06:56;;;;;;;25.77;24.30;;;;;;;;;;5031148;28;20033;-65
2024/01/09 01:09:22;;;;;;;23.75;22.45;;;;;;;;;;5031054;28;20041;-66
2024/01/09 01:11:47;;;;;;;26.35;24.65;;;;;;;;;;5028233;28;20539;-66
2024/01/09 01:14:12;;;;;;;27.13;25.48;;;;;;;;;;5032719;28;20034;-66
2024/01/09 01:16:38;;;;;;;26.42;24.88;;;;;;;;;;5031816;28;20056;-65
2024/01/09 01:19:03;;;;;;;27.13;25.52;;;;;;;;;;5031483;28;20073;-65
2024/01/09 01:21:28;;;;;;;26.73;25.23;;;;;;;;;;5027966;28;20068;-65
2024/01/09 01:23:54;;;;;;;24.02;22.63;;;;;;;;;;5030013;28;20036;-65
2024/01/09 01:26:19;;;;;;;26.65;25.23;;;;;;;;;;5028883;28;20068;-65
2024/01/09 01:28:45;;;;;;;26.98;25.23;;;;;;;;;;5027646;28;20037;-65
2024/01/09 01:31:10;;;;;;;28.77;27.17;;;;;;;;;;5028900;28;20037;-65
2024/01/09 01:33:35;;;;;;;27.85;25.88;;;;;;;;;;5026099;28;20037;-65
2024/01/09 01:36:01;;;;;;;28.42;26.17;;;;;;;;;;5033901;28;20547;-65
2024/01/09 01:38:26;;;;;;;25.13;23.73;;;;;;;;;;5031413;28;20458;-65
2024/01/09 01:40:51;;;;;;;25.83;24.40;;;;;;;;;;5030189;28;20037;-65
2024/01/09 01:43:17;;;;;;;25.48;24.08;;;;;;;;;;5028382;28;20590;-65
2024/01/09 01:45:42;;;;;;;25.55;24.15;;;;;;;;;;5034772;28;20136;-65
2024/01/09 01:48:09;;;;;;;25.25;23.35;;;;;;;;;;5030072;28;20034;-65
2024/01/09 01:50:34;;;;;;;24.42;23.13;;;;;;;;;;5028385;28;20028;-65
2024/01/09 01:53:03;;;;;;;24.75;23.40;;;;;;;;;;5030964;28;20060;-64
2024/01/09 01:55:29;;;;;;;23.90;22.60;;;;;;;;;;5031924;28;20033;-65
2024/01/09 01:57:56;;;;;;;26.13;24.73;;;;;;;;;;5031207;28;20043;-64
2024/01/09 02:00:22;;;;;;;25.95;24.42;;;;;;;;;;5029526;28;20033;-65
2024/01/09 02:02:48;;;;;;;25.70;24.25;;;;;;;;;;5027642;28;20029;-65
2024/01/09 02:05:16;;;;;;;28.10;26.52;;;;;;;;;;5029397;28;20029;-65
2024/01/09 02:07:45;;;;;;;26.98;25.25;;;;;;;;;;5030178;28;20478;-65
2024/01/09 02:10:11;;;;;;;24.08;22.65;;;;;;;;;;5027246;28;20056;-64
2024/01/09 02:12:36;;;;;;;24.83;23.42;;;;;;;;;;5026180;28;20026;-65
2024/01/09 02:15:02;;;;;;;26.23;24.80;;;;;;;;;;5026280;28;20041;-65
2024/01/09 02:17:28;;;;;;;25.50;24.10;;;;;;;;;;5028044;28;20125;-65
2024/01/09 02:19:53;;;;;;;25.73;24.33;;;;;;;;;;5033249;28;20365;-65
2024/01/09 02:22:18;;;;;;;25.35;23.90;;;;;;;;;;5030562;28;20136;-64
2024/01/09 02:24:44;;;;;;;25.10;23.70;;;;;;;;;;5029998;28;20464;-65
2024/01/09 02:27:18;;;;;;;25.90;24.40;;;;;;;;;;5035342;28;20105;-65
2024/01/09 02:29:48;;;;;;;24.42;23.13;;;;;;;;;;5035796;28;20033;-64
2024/01/09 02:32:15;;;;;;;25.35;23.48;;;;;;;;;;5033853;28;20133;-64
2024/01/09 02:34:43;;;;;;;25.20;23.80;;;;;;;;;;5030511;28;20112;-64
2024/01/09 02:37:08;;;;;;;24.13;22.77;;;;;;;;;;5032899;28;20049;-63
2024/01/09 02:39:33;;;;;;;27.63;26.08;;;;;;;;;;5036031;28;20214;-64
2024/01/09 02:41:59;;;;;;;24.05;22.67;;;;;;;;;;5032775;28;20565;-64
2024/01/09 02:44:24;;;;;;;27.05;25.55;;;;;;;;;;5036503;28;20446;-65
2024/01/09 02:46:49;;;;;;;25.23;23.83;;;;;;;;;;5034782;28;20040;-65
2024/01/09 02:49:15;;;;;;;26.20;24.70;;;;;;;;;;5035377;28;20458;-64
2024/01/09 02:51:40;;;;;;;28.30;26.63;;;;;;;;;;5031779;28;20099;-64
2024/01/09 02:54:05;;;;;;;24.27;22.90;;;;;;;;;;5032387;28;20695;-65
2024/01/09 02:56:33;;;;;;;26.00;24.60;;;;;;;;;;5030718;28;20056;-65
2024/01/09 02:58:58;;;;;;;24.08;22.77;;;;;;;;;;5034172;28;20049;-65
2024/01/09 03:01:24;;;;;;;24.40;23.00;;;;;;;;;;5035089;28;20057;-65
2024/01/09 03:03:49;;;;;;;24.85;23.45;;;;;;;;;;5034976;28;21274;-65
2024/01/09 03:06:15;;;;;;;25.98;24.55;;;;;;;;;;5035563;28;20044;-65
2024/01/09 03:08:40;;;;;;;25.88;24.40;;;;;;;;;;5030903;28;20044;-64
2024/01/09 03:11:05;;;;;;;26.58;25.02;;;;;;;;;;5033435;28;20088;-65
2024/01/09 03:13:31;;;;;;;24.55;23.15;;;;;;;;;;5033197;28;20057;-64
2024/01/09 03:15:56;;;;;;;26.48;25.08;;;;;;;;;;5033227;28;20037;-65
2024/01/09 03:18:21;;;;;;;27.02;25.42;;;;;;;;;;5032975;28;20068;-64
2024/01/09 03:20:47;;;;;;;24.42;22.73;;;;;;;;;;5031929;28;20041;-64
2024/01/09 03:23:12;;;;;;;29.50;27.92;;;;;;;;;;5033465;28;20049;-64
2024/01/09 03:25:37;;;;;;;25.27;23.88;;;;;;;;;;5038197;28;20045;-63
2024/01/09 03:28:03;;;;;;;25.83;24.20;;;;;;;;;;5032003;28;20033;-63
2024/01/09 03:30:29;;;;;;;23.98;22.50;;;;;;;;;;5033869;28;20040;-63
2024/01/09 03:32:55;;;;;;;27.33;25.80;;;;;;;;;;5035059;28;20117;-64
2024/01/09 03:35:20;;;;;;;27.38;25.73;;;;;;;;;;5032277;28;20119;-64
2024/01/09 03:37:46;;;;;;;26.38;24.85;;;;;;;;;;5036350;28;20064;-63
2024/01/09 03:40:11;;;;;;;24.80;23.40;;;;;;;;;;5033985;28;20036;-63
2024/01/09 03:42:37;;;;;;;25.63;24.15;;;;;;;;;;5032668;28;20045;-63
2024/01/09 03:45:02;;;;;;;24.90;23.58;;;;;;;;;;5035514;28;20032;-64
2024/01/09 03:47:28;;;;;;;26.48;24.92;;;;;;;;;;5035635;28;20039;-64
2024/01/09 03:49:53;;;;;;;25.30;23.90;;;;;;;;;;5032638;28;20029;-64
2024/01/09 03:52:19;;;;;;;26.40;24.90;;;;;;;;;;5037518;28;20567;-64
2024/01/09 03:54:44;;;;;;;26.08;24.58;;;;;;;;;;5031178;28;20646;-64
2024/01/09 03:57:10;;;;;;;24.08;22.70;;;;;;;;;;5034909;28;20037;-64
2024/01/09 03:59:35;;;;;;;27.17;25.67;;;;;;;;;;5027844;28;20029;-64
2024/01/09 04:02:01;;;;;;;25.48;24.08;;;;;;;;;;5031658;28;20128;-63
2024/01/09 04:04:26;;;;;;;26.90;25.23;;;;;;;;;;5033342;28;20037;-64
2024/01/09 04:06:52;;;;;;;26.15;24.65;;;;;;;;;;5032243;28;20036;-63
2024/01/09 04:09:17;;;;;;;26.65;25.13;;;;;;;;;;5035508;28;20040;-64
2024/01/09 04:11:46;;;;;;;25.13;23.63;;;;;;;;;;5030620;28;20041;-64
2024/01/09 04:14:12;;;;;;;25.92;24.50;;;;;;;;;;5034309;28;20125;-64
2024/01/09 04:16:37;;;;;;;25.85;24.45;;;;;;;;;;5030293;28;20116;-64
2024/01/09 04:19:03;;;;;;;28.98;27.23;;;;;;;;;;5015936;28;20044;-64
2024/01/09 04:21:28;;;;;;;28.08;26.25;;;;;;;;;;5029000;28;20044;-63
2024/01/09 04:23:53;;;;;;;26.77;25.27;;;;;;;;;;5032657;28;20024;-63
2024/01/09 04:26:19;;;;;;;30.25;27.77;;;;;;;;;;5032882;28;20042;-63
2024/01/09 04:28:44;;;;;;;26.58;25.08;;;;;;;;;;5026990;28;20051;-63
2024/01/09 04:31:09;;;;;;;26.08;24.63;;;;;;;;;;5030938;28;20494;-63
2024/01/09 04:33:35;;;;;;;27.60;26.10;;;;;;;;;;5029952;28;20124;-64
2024/01/09 04:36:00;;;;;;;26.48;25.08;;;;;;;;;;5030413;28;20042;-63
2024/01/09 04:38:25;;;;;;;27.15;25.65;;;;;;;;;;5032530;28;20043;-63
2024/01/09 04:40:51;;;;;;;28.38;26.30;;;;;;;;;;5026799;28;20080;-64
2024/01/09 04:43:16;;;;;;;25.92;24.25;;;;;;;;;;5033585;28;20037;-63
2024/01/09 04:45:41;;;;;;;24.13;22.73;;;;;;;;;;5030860;28;20399;-63
2024/01/09 04:48:07;;;;;;;25.70;24.30;;;;;;;;;;5031017;28;21320;-64
2024/01/09 04:50:33;;;;;;;26.92;25.30;;;;;;;;;;5031903;28;20033;-63
2024/01/09 04:52:58;;;;;;;27.85;26.25;;;;;;;;;;5028184;28;20037;-64
2024/01/09 04:55:23;;;;;;;27.45;25.95;;;;;;;;;;5030288;28;20032;-64
2024/01/09 04:57:49;;;;;;;24.55;23.17;;;;;;;;;;5032738;28;20033;-63
2024/01/09 05:00:14;;;;;;;27.25;25.50;;;;;;;;;;5029825;28;20355;-63
2024/01/09 05:02:40;;;;;;;24.55;23.17;;;;;;;;;;5030209;28;20037;-64
2024/01/09 05:05:05;;;;;;;24.92;23.52;;;;;;;;;;5032840;28;20076;-63
2024/01/09 05:07:30;;;;;;;24.25;22.85;;;;;;;;;;5030376;28;20041;-64
2024/01/09 05:09:56;;;;;;;26.05;24.58;;;;;;;;;;5028175;28;20055;-63
2024/01/09 05:12:21;;;;;;;27.20;25.70;;;;;;;;;;5029860;28;20053;-65
2024/01/09 05:14:47;;;;;;;36.55;26.75;;;;;;;;;;5029124;28;20060;-63
2024/01/09 05:17:12;;;;;;;25.33;23.92;;;;;;;;;;5028279;28;20057;-63
2024/01/09 05:19:37;;;;;;;26.05;24.55;;;;;;;;;;5027509;28;20036;-63
2024/01/09 05:22:03;;;;;;;25.95;24.55;;;;;;;;;;5030729;28;20137;-64
2024/01/09 05:24:28;;;;;;;25.45;24.05;;;;;;;;;;5029910;28;20103;-64
2024/01/09 05:26:53;;;;;;;24.77;23.35;;;;;;;;;;5029334;28;20029;-63
2024/01/09 05:29:19;;;;;;;27.33;25.60;;;;;;;;;;5030102;28;20037;-63
2024/01/09 05:31:44;;;;;;;26.88;25.38;;;;;;;;;;5031085;28;20753;-63
2024/01/09 05:34:10;;;;;;;25.30;23.65;;;;;;;;;;5028981;28;20120;-63
2024/01/09 05:36:35;;;;;;;25.98;24.58;;;;;;;;;;5028278;28;20021;-64
2024/01/09 05:39:00;;;;;;;25.58;24.20;;;;;;;;;;5028322;28;20145;-63
2024/01/09 05:41:26;;;;;;;26.92;25.42;;;;;;;;;;5028791;28;20041;-63
2024/01/09 05:43:51;;;;;;;24.73;23.35;;;;;;;;;;5028892;28;20086;-63
2024/01/09 05:46:17;;;;;;;25.98;24.45;;;;;;;;;;5026679;28;20037;-63
2024/01/09 05:48:43;;;;;;;28.45;26.88;;;;;;;;;;5029551;28;20037;-63
2024/01/09 05:51:09;;;;;;;24.25;22.88;;;;;;;;;;5029351;28;20041;-63
2024/01/09 05:53:36;;;;;;;24.00;22.60;;;;;;;;;;5029512;28;20029;-64
2024/01/09 05:56:03;;;;;;;23.33;22.10;;;;;;;;;;5025656;28;20049;-64
2024/01/09 05:58:28;;;;;;;25.42;23.92;;;;;;;;;;5029990;28;20045;-64
2024/01/09 06:00:53;;;;;;;26.20;24.67;;;;;;;;;;5027273;28;20094;-64
2024/01/09 06:03:19;;;;;;;26.17;24.67;;;;;;;;;;5032293;28;20037;-63
2024/01/09 06:05:44;;;;;;;27.58;25.75;;;;;;;;;;5026190;28;20087;-64
2024/01/09 06:08:09;;;;;;;24.65;23.15;;;;;;;;;;5029098;28;20079;-64
2024/01/09 06:10:34;;;;;;;29.48;27.77;;;;;;;;;;5026852;28;20026;-63
2024/01/09 06:13:00;;;;;;;26.23;24.80;;;;;;;;;;5030366;28;20045;-63
2024/01/09 06:15:25;;;;;;;25.75;24.35;;;;;;;;;;5029837;28;20423;-64
2024/01/09 06:17:50;;;;;;;25.13;23.73;;;;;;;;;;5031706;28;20115;-64
2024/01/09 06:20:16;;;;;;;24.58;23.17;;;;;;;;;;5031000;28;20043;-63
2024/01/09 06:22:41;;;;;;;24.30;22.90;;;;;;;;;;5029195;28;20505;-65
2024/01/09 06:25:06;;;;;;;23.83;22.52;;;;;;;;;;5031787;28;20029;-64
2024/01/09 06:27:32;;;;;;;24.30;22.98;;;;;;;;;;5027365;28;20063;-64
2024/01/09 06:29:57;;;;;;;27.13;25.60;;;;;;;;;;5034182;28;20359;-64
2024/01/09 06:32:22;;;;;;;24.17;22.77;;;;;;;;;;5036525;28;20032;-64
2024/01/09 06:34:48;;;;;;;28.42;26.70;;;;;;;;;;5029057;28;20037;-63
2024/01/09 06:37:13;;;;;;;25.50;24.10;;;;;;;;;;5031003;28;20040;-63
2024/01/09 06:39:38;;;;;;;24.92;23.55;;;;;;;;;;5030178;28;20034;-64
2024/01/09 06:42:04;;;;;;;25.95;24.45;;;;;;;;;;5029225;28;20045;-64
2024/01/09 06:44:29;;;;;;;22.30;21.10;;;;;;;;;;5030797;28;20029;-64
2024/01/09 06:46:54;;;;;;;26.85;25.38;;;;;;;;;;5025167;28;20037;-64
2024/01/09 06:49:20;;;;;;;27.88;26.38;;;;;;;;;;5033043;28;20098;-64
2024/01/09 06:51:45;;;;;;;23.58;22.30;;;;;;;;;;5026641;28;20042;-65
2024/01/09 06:54:11;;;;;;;26.45;24.95;;;;;;;;;;5026865;28;20037;-65
2024/01/09 06:56:36;;;;;;;27.30;25.80;;;;;;;;;;5028402;28;20489;-65
2024/01/09 06:59:02;;;;;;;28.27;26.77;;;;;;;;;;5031773;28;20230;-65
2024/01/09 07:01:27;;;;;;;26.65;25.15;;;;;;;;;;5030376;28;20036;-65
2024/01/09 07:03:53;;;;;;;28.83;26.88;;;;;;;;;;5030571;28;20931;-65
2024/01/09 07:06:18;;;;;;;25.02;23.58;;;;;;;;;;5029266;28;20108;-65
2024/01/09 07:08:43;;;;;;;26.35;24.92;;;;;;;;;;5028579;28;20112;-65
2024/01/09 07:11:09;;;;;;;23.70;22.40;;;;;;;;;;5029411;28;20485;-65
2024/01/09 07:13:34;;;;;;;26.48;25.08;;;;;;;;;;5033298;28;20040;-66
2024/01/09 07:16:00;;;;;;;28.05;26.45;;;;;;;;;;5033539;28;20104;-65
2024/01/09 07:18:27;;;;;;;26.40;24.80;;;;;;;;;;5033212;28;20091;-65
2024/01/09 07:20:53;;;;;;;27.77;26.17;;;;;;;;;;5032851;28;20041;-65
2024/01/09 07:23:18;;;;;;;26.73;25.23;;;;;;;;;;5034107;28;20029;-66
2024/01/09 07:25:44;;;;;;;27.05;25.55;;;;;;;;;;5029869;28;20021;-65
2024/01/09 07:28:09;;;;;;;26.85;25.40;;;;;;;;;;5031641;28;20383;-64
2024/01/09 07:30:34;;;;;;;26.58;24.83;;;;;;;;;;5031788;28;20044;-65
2024/01/09 07:33:00;;;;;;;29.05;27.20;;;;;;;;;;5032999;28;20040;-65
2024/01/09 07:35:25;;;;;;;24.58;23.27;;;;;;;;;;5034431;28;20565;-65
2024/01/09 07:37:50;;;;;;;22.75;21.52;;;;;;;;;;5034640;28;20105;-66
2024/01/09 07:40:15;;;;;;;24.08;22.77;;;;;;;;;;5032760;28;20036;-66
2024/01/09 07:42:41;;;;;;;24.88;23.52;;;;;;;;;;5033539;28;20032;-66
2024/01/09 07:45:11;;;;;;;25.98;24.58;;;;;;;;;;5032589;28;20118;-66
2024/01/09 07:47:37;;;;;;;24.20;22.55;;;;;;;;;;5033489;28;20028;-66
2024/01/09 07:50:03;;;;;;;23.35;22.05;;;;;;;;;;5035057;28;20037;-65
2024/01/09 07:52:28;;;;;;;22.65;21.40;;;;;;;;;;5033949;28;20751;-65
2024/01/09 07:54:54;;;;;;;23.30;22.05;;;;;;;;;;5029277;28;20029;-63
2024/01/09 07:57:19;;;;;;;23.58;22.17;;;;;;;;;;5037052;28;20025;-63
2024/01/09 07:59:44;;;;;;;23.98;22.63;;;;;;;;;;5029221;28;20033;-64
2024/01/09 08:02:10;;;;;;;25.13;23.67;;;;;;;;;;5031854;28;20033;-64
2024/01/09 08:04:35;;;;;;;22.50;21.30;;;;;;;;;;5034100;28;20101;-63
2024/01/09 08:07:00;;;;;;;23.42;22.13;;;;;;;;;;5033927;28;20179;-64
2024/01/09 08:09:26;;;;;;;21.33;20.13;;;;;;;;;;5032231;28;20065;-63
2024/01/09 08:11:51;;;;;;;22.50;21.20;;;;;;;;;;5029276;28;20057;-64
2024/01/09 08:14:17;;;;;;;22.85;21.55;;;;;;;;;;5033731;28;20129;-64
2024/01/09 08:16:42;;;;;;;22.73;21.42;;;;;;;;;;5030395;28;20047;-64
2024/01/09 08:19:08;;;;;;;20.95;19.73;;;;;;;;;;5033869;28;20745;-64
2024/01/09 08:21:37;;;;;;;22.60;21.33;;;;;;;;;;5029112;28;20419;-64
2024/01/09 08:24:03;;;;;;;22.50;21.20;;;;;;;;;;5033200;28;20043;-64
2024/01/09 08:26:28;;;;;;;22.75;21.38;;;;;;;;;;5031387;28;20033;-63
2024/01/09 08:28:54;;;;;;;23.60;22.30;;;;;;;;;;5026342;28;20628;-65
2024/01/09 08:31:19;;;;;;;23.38;22.08;;;;;;;;;;5032879;28;20033;-64
2024/01/09 08:33:44;;;;;;;25.27;23.83;;;;;;;;;;5035003;28;20043;-64
2024/01/09 08:36:11;;;;;;;23.10;21.63;;;;;;;;;;5032419;28;20029;-65
2024/01/09 08:38:37;;;;;;;24.15;22.85;;;;;;;;;;5032517;28;20032;-64
2024/01/09 08:41:02;;;;;;;24.20;22.85;;;;;;;;;;5028618;28;20034;-64
2024/01/09 08:43:28;;;;;;;24.45;22.95;;;;;;;;;;5031807;28;20761;-64
2024/01/09 08:45:54;;;;;;;23.85;22.55;;;;;;;;;;5035618;28;20037;-64
2024/01/09 08:48:19;;;;;;;25.00;23.60;;;;;;;;;;5032607;28;20354;-63
2024/01/09 08:50:45;;;;;;;26.00;24.30;;;;;;;;;;5033891;28;20036;-64
2024/01/09 08:53:10;;;;;;;23.45;22.15;;;;;;;;;;5034751;28;20036;-64
2024/01/09 08:55:36;;;;;;;27.55;25.85;;;;;;;;;;5026549;28;20120;-64
2024/01/09 08:58:01;;;;;;;24.27;22.90;;;;;;;;;;5031980;28;20033;-64
2024/01/09 09:00:27;;;;;;;28.40;26.80;;;;;;;;;;5036558;28;20037;-65
2024/01/09 09:02:52;;;;;;;28.90;27.10;;;;;;;;;;5032898;28;20108;-65
2024/01/09 09:05:18;;;;;;;27.10;25.70;;;;;;;;;;5035445;28;20037;-64
2024/01/09 09:07:43;;;;;;;28.98;27.08;;;;;;;;;;5030628;28;20098;-65
2024/01/09 09:10:09;;;;;;;27.35;25.85;;;;;;;;;;5027092;28;20107;-65
2024/01/09 09:12:34;;;;;;;26.70;25.17;;;;;;;;;;5030760;28;20041;-65
2024/01/09 09:15:02;;;;;;;28.65;27.05;;;;;;;;;;5030399;28;20036;-65
2024/01/09 09:17:28;;;;;;;27.92;26.42;;;;;;;;;;5029095;28;20044;-65
2024/01/09 09:19:54;;;;;;;27.25;25.63;;;;;;;;;;5028064;28;20029;-65
2024/01/09 09:22:23;;;;;;;28.33;26.80;;;;;;;;;;5030263;28;20494;-65
2024/01/09 09:24:49;;;;;;;28.17;25.98;;;;;;;;;;5033378;28;20037;-65
2024/01/09 09:27:14;;;;;;;29.95;28.25;;;;;;;;;;5030477;28;20051;-65
2024/01/09 09:29:41;;;;;;;26.90;25.50;;;;;;;;;;5029989;28;20037;-65
2024/01/09 09:32:06;;;;;;;29.15;27.45;;;;;;;;;;5030254;28;20042;-65
2024/01/09 09:34:31;;;;;;;28.13;26.63;;;;;;;;;;5029635;28;20037;-65
2024/01/09 09:36:57;;;;;;;29.35;27.75;;;;;;;;;;5031375;28;20064;-65
2024/01/09 09:39:22;;;;;;;30.77;29.17;;;;;;;;;;5028656;28;20063;-65
2024/01/09 09:41:54;;;;;;;30.15;28.55;;;;;;;;;;5030895;28;20090;-66
2024/01/09 09:44:21;;;;;;;31.90;29.85;;;;;;;;;;5031413;28;20037;-66
2024/01/09 09:46:48;;;;;;;28.27;26.67;;;;;;;;;;5031461;28;20033;-66
2024/01/09 09:49:14;;;;;;;28.60;27.10;;;;;;;;;;5027777;28;20412;-66
2024/01/09 09:51:40;;;;;;;29.75;27.80;;;;;;;;;;5033575;28;20112;-66
2024/01/09 09:54:06;;;;;;;26.50;25.02;;;;;;;;;;5034658;28;20135;-66
2024/01/09 09:56:31;;;;;;;27.05;25.55;;;;;;;;;;5026906;28;20459;-67
2024/01/09 09:58:56;;;;;;;27.20;25.63;;;;;;;;;;5027944;28;20048;-66
2024/01/09 10:01:23;;;;;;;22.80;21.55;;;;;;;;;;5032122;28;20105;-66
2024/01/09 10:03:53;;;;;;;23.35;22.05;;;;;;;;;;5031084;28;20040;-66
2024/01/09 10:06:18;;;;;;;22.48;21.08;;;;;;;;;;5029726;28;20037;-66
2024/01/09 10:08:46;;;;;;;21.63;20.42;;;;;;;;;;5030016;28;20029;-66
2024/01/09 10:11:12;;;;;;;19.90;18.70;;;;;;;;;;5028769;28;20095;-66
2024/01/09 10:13:39;;;;;;;20.35;19.25;;;;;;;;;;5023051;28;20037;-66
2024/01/09 10:16:04;;;;;;;23.63;22.33;;;;;;;;;;5027841;28;20141;-66
2024/01/09 10:18:30;;;;;;;22.70;21.40;;;;;;;;;;5029820;28;21176;-67
2024/01/09 10:20:58;;;;;;;22.30;21.10;;;;;;;;;;5027243;28;20447;-59
2024/01/09 10:23:25;;;;;;;21.48;20.27;;;;;;;;;;5035400;28;20637;-59
2024/01/09 10:25:51;;;;;;;21.27;20.08;;;;;;;;;;5028250;28;20037;-59
2024/01/09 10:28:19;;;;;;;21.70;20.50;;;;;;;;;;5030111;28;20021;-59
2024/01/09 10:30:45;;;;;;;20.63;19.52;;;;;;;;;;5032827;28;20739;-59
2024/01/09 10:33:14;;;;;;;21.80;20.48;;;;;;;;;;5030437;28;20395;-59
2024/01/09 10:35:40;;;;;;;20.52;19.33;;;;;;;;;;5028008;28;20061;-60
2024/01/09 10:38:08;;;;;;;21.63;20.35;;;;;;;;;;5029818;28;20501;-59
2024/01/09 10:40:33;;;;;;;21.10;19.90;;;;;;;;;;5028795;28;20121;-59
2024/01/09 10:43:00;;;;;;;21.27;19.95;;;;;;;;;;5026864;28;20112;-59
2024/01/09 10:45:26;;;;;;;21.58;20.38;;;;;;;;;;5033473;28;20036;-59
2024/01/09 10:47:53;;;;;;;22.15;20.95;;;;;;;;;;5037421;28;20364;-60
2024/01/09 10:50:20;;;;;;;20.27;19.17;;;;;;;;;;5032071;28;20336;-59
2024/01/09 10:52:47;;;;;;;21.80;20.40;;;;;;;;;;5033966;28;20087;-59
2024/01/09 10:55:14;;;;;;;21.85;20.50;;;;;;;;;;5031218;28;20128;-60
2024/01/09 10:57:40;;;;;;;22.65;21.17;;;;;;;;;;5034610;28;20025;-59
2024/01/09 11:00:08;;;;;;;21.10;19.90;;;;;;;;;;5031913;28;20039;-59
2024/01/09 11:02:36;;;;;;;20.88;19.60;;;;;;;;;;5033470;28;20095;-60
2024/01/09 11:05:03;;;;;;;22.17;20.98;;;;;;;;;;5030494;28;20415;-61
2024/01/09 11:07:30;;;;;;;22.25;21.05;;;;;;;;;;5032533;28;20037;-60
2024/01/09 11:09:56;;;;;;;25.38;23.77;;;;;;;;;;5032393;28;20052;-59
2024/01/09 11:12:34;;;;;;;23.38;21.98;;;;;;;;;;5035617;28;20041;-60
2024/01/09 11:15:09;;;;;;;24.63;23.20;;;;;;;;;;5034432;28;20049;-59
2024/01/09 11:17:37;;;;;;;30.08;28.48;;;;;;;;;;5035263;28;20033;-60
2024/01/09 11:20:07;;;;;;;29.08;27.38;;;;;;;;;;5044559;28;20494;-60
2024/01/09 11:22:38;;;;;;;30.38;28.73;;;;;;;;;;5032461;28;20048;-60
2024/01/09 11:25:07;;;;;;;30.30;28.70;;;;;;;;;;5032114;28;20061;-59
2024/01/09 11:27:41;;;;;;;28.95;27.05;;;;;;;;;;5032258;28;20041;-60
2024/01/09 11:30:09;;;;;;;30.60;29.00;;;;;;;;;;5033291;28;20050;-60
2024/01/09 11:32:34;;;;;;;32.33;30.63;;;;;;;;;;5029734;28;20029;-60
2024/01/09 11:35:17;;;;;;;31.20;29.50;;;;;;;;;;5030345;28;20075;-60
2024/01/09 11:37:47;;;;;;;29.52;27.92;;;;;;;;;;5034524;28;20041;-60
2024/01/09 11:40:14;;;;;;;29.90;28.20;;;;;;;;;;5033828;28;20455;-60
2024/01/09 11:42:44;;;;;;;28.90;27.40;;;;;;;;;;5033383;28;20022;-60
2024/01/09 11:45:11;;;;;;;29.42;27.80;;;;;;;;;;5033339;28;20466;-60
2024/01/09 11:47:42;;;;;;;28.50;27.00;;;;;;;;;;5027709;28;20468;-60
2024/01/09 11:50:11;;;;;;;29.08;27.48;;;;;;;;;;5028879;28;20112;-60
2024/01/09 11:52:39;;;;;;;28.15;26.65;;;;;;;;;;5032658;28;20033;-60
2024/01/09 11:55:08;;;;;;;29.63;27.77;;;;;;;;;;5031869;28;20037;-60
2024/01/09 11:57:34;;;;;;;28.27;26.67;;;;;;;;;;5031213;28;20041;-60
2024/01/09 12:00:01;;;;;;;27.95;26.42;;;;;;;;;;5030381;28;20057;-60
2024/01/09 12:02:26;;;;;;;27.00;25.55;;;;;;;;;;5029199;28;20529;-60
2024/01/09 12:04:53;;;;;;;28.80;27.20;;;;;;;;;;5034488;28;20021;-60
2024/01/09 12:07:19;;;;;;;28.30;26.65;;;;;;;;;;5031576;28;20507;-60
2024/01/09 12:09:47;;;;;;;27.20;25.60;;;;;;;;;;5026795;28;20166;-60
2024/01/09 12:12:20;;;;;;;27.70;26.20;;;;;;;;;;5029643;28;20029;-60
2024/01/09 12:14:56;;;;;;;30.58;28.77;;;;;;;;;;5031074;28;20044;-60
2024/01/09 12:17:27;;;;;;;27.90;26.35;;;;;;;;;;5032728;28;20041;-60
2024/01/09 12:19:53;;;;;;;28.50;26.57;;;;;;;;;;5035787;28;20033;-62
2024/01/09 12:22:22;;;;;;;26.17;24.77;;;;;;;;;;5031331;28;20674;-60
2024/01/09 12:24:50;;;;;;;27.23;25.73;;;;;;;;;;5029925;28;20032;-60
2024/01/09 12:27:17;;;;;;;26.42;25.02;;;;;;;;;;5031155;28;20052;-60
2024/01/09 12:29:44;;;;;;;27.92;26.33;;;;;;;;;;5035647;28;20042;-60
2024/01/09 12:32:10;;;;;;;25.85;24.35;;;;;;;;;;5033311;28;20041;-60
2024/01/09 12:34:35;;;;;;;24.60;23.30;;;;;;;;;;5031312;28;20048;-60
2024/01/09 12:37:05;;;;;;;27.30;25.60;;;;;;;;;;5030748;28;20119;-60
2024/01/09 12:39:31;;;;;;;27.25;25.63;;;;;;;;;;5029786;28;20029;-60
2024/01/09 12:42:07;;;;;;;25.42;24.02;;;;;;;;;;5028827;28;20061;-60
2024/01/09 12:44:33;;;;;;;26.33;24.92;;;;;;;;;;5032826;28;20048;-60
2024/01/09 12:47:00;;;;;;;27.92;26.25;;;;;;;;;;5029893;28;20029;-60
2024/01/09 12:49:26;;;;;;;26.67;25.23;;;;;;;;;;5033200;28;20031;-60
2024/01/09 12:51:56;;;;;;;27.45;25.85;;;;;;;;;;5029822;28;20662;-60
2024/01/09 12:54:22;;;;;;;26.77;25.27;;;;;;;;;;5029833;28;20034;-60
2024/01/09 12:56:48;;;;;;;29.45;27.77;;;;;;;;;;5027913;28;20110;-61
2024/01/09 12:59:21;;;;;;;27.38;25.77;;;;;;;;;;5032242;28;20038;-60
2024/01/09 13:01:47;;;;;;;26.30;24.77;;;;;;;;;;5028695;28;20465;-61
2024/01/09 13:04:12;;;;;;;25.35;23.92;;;;;;;;;;5029931;28;20041;-60
2024/01/09 13:06:39;;;;;;;24.45;22.98;;;;;;;;;;5029911;28;20098;-61
2024/01/09 13:09:06;;;;;;;25.25;23.80;;;;;;;;;;5030398;28;20026;-61
2024/01/09 13:11:32;;;;;;;26.50;23.85;;;;;;;;;;5029594;28;20040;-61
2024/01/09 13:13:59;;;;;;;25.80;23.63;;;;;;;;;;5032164;28;20029;-61
2024/01/09 13:16:25;;;;;;;25.13;23.63;;;;;;;;;;5031122;28;20044;-61
2024/01/09 13:18:50;;;;;;;26.35;24.95;;;;;;;;;;5026754;28;20037;-61
2024/01/09 13:21:15;;;;;;;26.20;24.58;;;;;;;;;;5024703;28;20037;-61
2024/01/09 13:23:41;;;;;;;24.55;23.17;;;;;;;;;;5030762;28;20097;-61
2024/01/09 13:26:07;;;;;;;25.80;24.33;;;;;;;;;;5028303;28;20026;-61
2024/01/09 13:28:32;;;;;;;25.73;24.33;;;;;;;;;;5028911;28;20128;-61
2024/01/09 13:30:57;;;;;;;25.95;24.58;;;;;;;;;;5029599;28;20483;-61
2024/01/09 13:33:23;;;;;;;24.77;23.33;;;;;;;;;;5029134;28;20154;-61
2024/01/09 13:35:49;;;;;;;23.42;22.13;;;;;;;;;;5029021;28;20029;-61
2024/01/09 13:38:16;;;;;;;29.33;27.65;;;;;;;;;;5028984;28;20044;-61
2024/01/09 13:40:41;;;;;;;29.45;27.75;;;;;;;;;;5030936;28;20746;-61
2024/01/09 13:43:06;;;;;;;29.00;27.45;;;;;;;;;;5035162;28;20104;-61
2024/01/09 13:45:32;;;;;;;29.88;28.27;;;;;;;;;;5030662;28;20120;-61
2024/01/09 13:47:59;;;;;;;28.33;26.83;;;;;;;;;;5030467;28;20035;-62
2024/01/09 13:50:25;;;;;;;27.52;26.02;;;;;;;;;;5025935;28;20076;-61
2024/01/09 13:52:51;;;;;;;28.15;26.55;;;;;;;;;;5032877;28;20462;-61
2024/01/09 13:55:17;;;;;;;27.27;25.80;;;;;;;;;;5031949;28;20132;-61
2024/01/09 13:57:43;;;;;;;28.35;26.65;;;;;;;;;;5030916;28;20125;-62
2024/01/09 14:00:10;;;;;;;27.98;26.40;;;;;;;;;;5033535;28;20071;-61
2024/01/09 14:02:38;;;;;;;27.45;25.92;;;;;;;;;;5031265;28;20029;-61
2024/01/09 14:05:07;;;;;;;26.92;25.38;;;;;;;;;;5031477;28;20040;-62
2024/01/09 14:07:39;;;;;;;30.42;28.75;;;;;;;;;;5029759;28;20025;-61
2024/01/09 14:10:05;;;;;;;;;;;;;;;;;;5030586;28;20069;-61
2024/01/09 14:12:34;;;;;;;28.42;26.92;;;;;;;;;;5027516;28;19936;-61